Fairmont, Oklahoma
Current Conditions -  °F | °C
As of 8:55 PM on Monday 22 Dec 2014 (Local Time) from KWDG Reporting Station
Clear Clear  
Wind Chill: 38°   Ceiling: Unl
Heat Index: 41°   Visibility: 10mi
Dew Point: 36°   Wind: 5mph
Humidity: 81%   Direction: 250°WSW
Pressure: 29.67"   Gusts: NA
Location:  36.36°N, 97.71°W
Report Text: KWDG 230255Z AUTO 25004KT 10SM CLR 05/02 A2967 RMK AO2
Loading
Personal Weather Stations






























Interactive Weather Map New forecast layout! Learn more

10-Day Weather Forecast

Advertisements
Track Severe Weather on mobile